sensor_id;sensor_type;location;lat;lon;timestamp;P1;durP1;ratioP1;P2;durP2;ratioP2
12587;SDS011;6359;51.450;7.346;2023-04-25T00:01:57;14.30;;;5.72;;
12587;SDS011;6359;51.450;7.346;2023-04-25T00:04:24;14.77;;;6.43;;
12587;SDS011;6359;51.450;7.346;2023-04-25T00:06:53;18.85;;;6.50;;
12587;SDS011;6359;51.450;7.346;2023-04-25T00:09:20;16.30;;;5.68;;
12587;SDS011;6359;51.450;7.346;2023-04-25T00:11:47;13.65;;;5.57;;
12587;SDS011;6359;51.450;7.346;2023-04-25T00:14:14;17.33;;;6.07;;
12587;SDS011;6359;51.450;7.346;2023-04-25T00:16:41;11.95;;;5.47;;
12587;SDS011;6359;51.450;7.346;2023-04-25T00:19:09;18.48;;;5.80;;
12587;SDS011;6359;51.450;7.346;2023-04-25T00:21:36;11.68;;;5.47;;
12587;SDS011;6359;51.450;7.346;2023-04-25T00:24:07;11.68;;;5.15;;
12587;SDS011;6359;51.450;7.346;2023-04-25T00:26:34;12.10;;;5.00;;
12587;SDS011;6359;51.450;7.346;2023-04-25T00:29:01;12.85;;;5.35;;
12587;SDS011;6359;51.450;7.346;2023-04-25T00:31:28;15.45;;;5.53;;
12587;SDS011;6359;51.450;7.346;2023-04-25T00:33:55;17.13;;;5.40;;
12587;SDS011;6359;51.450;7.346;2023-04-25T00:36:21;15.75;;;5.63;;
12587;SDS011;6359;51.450;7.346;2023-04-25T00:38:48;11.50;;;5.18;;
12587;SDS011;6359;51.450;7.346;2023-04-25T00:41:17;13.45;;;5.18;;
12587;SDS011;6359;51.450;7.346;2023-04-25T00:43:45;16.15;;;6.55;;
12587;SDS011;6359;51.450;7.346;2023-04-25T00:46:14;13.45;;;5.50;;
12587;SDS011;6359;51.450;7.346;2023-04-25T00:48:41;16.00;;;5.78;;
12587;SDS011;6359;51.450;7.346;2023-04-25T00:51:07;14.48;;;5.78;;
12587;SDS011;6359;51.450;7.346;2023-04-25T00:53:40;16.77;;;6.30;;
12587;SDS011;6359;51.450;7.346;2023-04-25T00:56:07;9.77;;;5.55;;
12587;SDS011;6359;51.450;7.346;2023-04-25T00:58:35;19.50;;;5.80;;
12587;SDS011;6359;51.450;7.346;2023-04-25T01:01:03;12.30;;;5.28;;
12587;SDS011;6359;51.450;7.346;2023-04-25T01:03:31;11.02;;;5.35;;
12587;SDS011;6359;51.450;7.346;2023-04-25T01:06:00;9.98;;;4.88;;
12587;SDS011;6359;51.450;7.346;2023-04-25T01:08:28;18.75;;;5.72;;
12587;SDS011;6359;51.450;7.346;2023-04-25T01:10:55;14.40;;;5.45;;
12587;SDS011;6359;51.450;7.346;2023-04-25T01:13:22;13.65;;;5.68;;
12587;SDS011;6359;51.450;7.346;2023-04-25T01:15:50;14.30;;;6.15;;
12587;SDS011;6359;51.450;7.346;2023-04-25T01:18:17;11.73;;;6.07;;
12587;SDS011;6359;51.450;7.346;2023-04-25T01:20:45;11.90;;;5.70;;
12587;SDS011;6359;51.450;7.346;2023-04-25T01:23:14;14.52;;;6.32;;
12587;SDS011;6359;51.450;7.346;2023-04-25T01:25:41;18.77;;;6.85;;
12587;SDS011;6359;51.450;7.346;2023-04-25T01:28:08;10.88;;;7.32;;
12587;SDS011;6359;51.450;7.346;2023-04-25T01:30:35;17.63;;;7.20;;
12587;SDS011;6359;51.450;7.346;2023-04-25T01:33:03;12.00;;;6.05;;
12587;SDS011;6359;51.450;7.346;2023-04-25T01:35:31;16.08;;;7.68;;
12587;SDS011;6359;51.450;7.346;2023-04-25T01:37:58;14.07;;;7.50;;
12587;SDS011;6359;51.450;7.346;2023-04-25T01:40:26;16.55;;;7.63;;
12587;SDS011;6359;51.450;7.346;2023-04-25T01:42:54;16.15;;;7.18;;
12587;SDS011;6359;51.450;7.346;2023-04-25T01:45:21;11.45;;;6.78;;
12587;SDS011;6359;51.450;7.346;2023-04-25T01:47:48;15.20;;;7.22;;
12587;SDS011;6359;51.450;7.346;2023-04-25T01:50:15;15.52;;;7.40;;
12587;SDS011;6359;51.450;7.346;2023-04-25T01:52:43;12.45;;;7.60;;
12587;SDS011;6359;51.450;7.346;2023-04-25T01:55:10;15.40;;;8.38;;
12587;SDS011;6359;51.450;7.346;2023-04-25T01:57:39;17.85;;;7.55;;
12587;SDS011;6359;51.450;7.346;2023-04-25T02:00:06;19.65;;;8.23;;
12587;SDS011;6359;51.450;7.346;2023-04-25T02:02:34;14.95;;;7.57;;
12587;SDS011;6359;51.450;7.346;2023-04-25T02:05:01;15.43;;;7.78;;
12587;SDS011;6359;51.450;7.346;2023-04-25T02:07:27;17.65;;;7.20;;
12587;SDS011;6359;51.450;7.346;2023-04-25T02:09:54;16.90;;;7.90;;
12587;SDS011;6359;51.450;7.346;2023-04-25T02:12:21;17.58;;;7.90;;
12587;SDS011;6359;51.450;7.346;2023-04-25T02:14:49;14.55;;;7.25;;
12587;SDS011;6359;51.450;7.346;2023-04-25T02:17:16;11.88;;;7.15;;
12587;SDS011;6359;51.450;7.346;2023-04-25T02:19:43;16.10;;;7.70;;
12587;SDS011;6359;51.450;7.346;2023-04-25T02:22:10;15.30;;;7.55;;
12587;SDS011;6359;51.450;7.346;2023-04-25T02:24:38;16.10;;;6.97;;
12587;SDS011;6359;51.450;7.346;2023-04-25T02:27:05;18.02;;;7.18;;
12587;SDS011;6359;51.450;7.346;2023-04-25T02:29:32;16.75;;;7.80;;
12587;SDS011;6359;51.450;7.346;2023-04-25T02:32:01;15.32;;;7.97;;
12587;SDS011;6359;51.450;7.346;2023-04-25T02:34:28;13.77;;;7.53;;
12587;SDS011;6359;51.450;7.346;2023-04-25T02:36:55;21.70;;;7.82;;
12587;SDS011;6359;51.450;7.346;2023-04-25T02:39:22;12.43;;;7.90;;
12587;SDS011;6359;51.450;7.346;2023-04-25T02:41:50;14.27;;;7.15;;
12587;SDS011;6359;51.450;7.346;2023-04-25T02:44:17;13.93;;;8.02;;
12587;SDS011;6359;51.450;7.346;2023-04-25T02:46:45;16.90;;;8.00;;
12587;SDS011;6359;51.450;7.346;2023-04-25T02:49:13;20.42;;;8.60;;
12587;SDS011;6359;51.450;7.346;2023-04-25T02:51:40;15.60;;;9.02;;
12587;SDS011;6359;51.450;7.346;2023-04-25T02:54:07;15.98;;;8.55;;
12587;SDS011;6359;51.450;7.346;2023-04-25T02:56:33;17.20;;;8.65;;
12587;SDS011;6359;51.450;7.346;2023-04-25T02:59:00;16.08;;;8.27;;
12587;SDS011;6359;51.450;7.346;2023-04-25T03:01:27;17.67;;;8.68;;
12587;SDS011;6359;51.450;7.346;2023-04-25T03:03:54;16.00;;;8.30;;
12587;SDS011;6359;51.450;7.346;2023-04-25T03:06:22;16.20;;;8.43;;
12587;SDS011;6359;51.450;7.346;2023-04-25T03:08:49;15.18;;;8.18;;
12587;SDS011;6359;51.450;7.346;2023-04-25T03:11:16;17.05;;;8.55;;
12587;SDS011;6359;51.450;7.346;2023-04-25T03:13:45;17.33;;;8.27;;
12587;SDS011;6359;51.450;7.346;2023-04-25T03:16:12;14.45;;;8.18;;
12587;SDS011;6359;51.450;7.346;2023-04-25T03:18:38;16.58;;;7.85;;
12587;SDS011;6359;51.450;7.346;2023-04-25T03:21:05;11.40;;;7.32;;
12587;SDS011;6359;51.450;7.346;2023-04-25T03:23:34;13.30;;;7.75;;
12587;SDS011;6359;51.450;7.346;2023-04-25T03:26:01;13.80;;;7.43;;
12587;SDS011;6359;51.450;7.346;2023-04-25T03:28:28;15.57;;;7.45;;
12587;SDS011;6359;51.450;7.346;2023-04-25T03:30:54;16.25;;;6.55;;
12587;SDS011;6359;51.450;7.346;2023-04-25T03:33:21;15.73;;;7.03;;
12587;SDS011;6359;51.450;7.346;2023-04-25T03:35:48;13.48;;;6.60;;
12587;SDS011;6359;51.450;7.346;2023-04-25T03:38:16;19.80;;;6.57;;
12587;SDS011;6359;51.450;7.346;2023-04-25T03:40:44;17.65;;;6.75;;
12587;SDS011;6359;51.450;7.346;2023-04-25T03:43:11;16.23;;;6.03;;
12587;SDS011;6359;51.450;7.346;2023-04-25T03:45:38;15.50;;;6.55;;
12587;SDS011;6359;51.450;7.346;2023-04-25T03:48:05;12.27;;;6.30;;
12587;SDS011;6359;51.450;7.346;2023-04-25T03:50:32;19.73;;;6.38;;
12587;SDS011;6359;51.450;7.346;2023-04-25T03:52:59;12.93;;;6.50;;
12587;SDS011;6359;51.450;7.346;2023-04-25T03:55:26;14.85;;;6.25;;
12587;SDS011;6359;51.450;7.346;2023-04-25T03:57:54;26.02;;;6.80;;
12587;SDS011;6359;51.450;7.346;2023-04-25T04:00:23;14.30;;;6.50;;
12587;SDS011;6359;51.450;7.346;2023-04-25T04:02:50;13.82;;;6.70;;
12587;SDS011;6359;51.450;7.346;2023-04-25T04:05:17;19.60;;;8.10;;
12587;SDS011;6359;51.450;7.346;2023-04-25T04:07:43;19.30;;;6.90;;
12587;SDS011;6359;51.450;7.346;2023-04-25T04:10:10;16.05;;;6.63;;
12587;SDS011;6359;51.450;7.346;2023-04-25T04:12:38;19.27;;;8.18;;
12587;SDS011;6359;51.450;7.346;2023-04-25T04:15:07;13.98;;;7.43;;
12587;SDS011;6359;51.450;7.346;2023-04-25T04:17:34;17.30;;;7.72;;
12587;SDS011;6359;51.450;7.346;2023-04-25T04:20:01;19.67;;;7.88;;
12587;SDS011;6359;51.450;7.346;2023-04-25T04:22:29;9.05;;;4.32;;
12587;SDS011;6359;51.450;7.346;2023-04-25T04:24:56;9.18;;;3.35;;
12587;SDS011;6359;51.450;7.346;2023-04-25T04:27:23;11.23;;;3.28;;
12587;SDS011;6359;51.450;7.346;2023-04-25T04:29:49;10.02;;;2.88;;
12587;SDS011;6359;51.450;7.346;2023-04-25T04:32:19;8.57;;;3.05;;
12587;SDS011;6359;51.450;7.346;2023-04-25T04:34:48;8.70;;;3.03;;
12587;SDS011;6359;51.450;7.346;2023-04-25T04:37:15;5.03;;;2.45;;
12587;SDS011;6359;51.450;7.346;2023-04-25T04:39:42;7.72;;;3.35;;
12587;SDS011;6359;51.450;7.346;2023-04-25T04:42:09;7.53;;;3.10;;
12587;SDS011;6359;51.450;7.346;2023-04-25T04:44:36;10.73;;;3.15;;
12587;SDS011;6359;51.450;7.346;2023-04-25T04:47:04;9.05;;;2.85;;
12587;SDS011;6359;51.450;7.346;2023-04-25T04:49:32;12.07;;;3.28;;
12587;SDS011;6359;51.450;7.346;2023-04-25T04:51:59;8.95;;;3.15;;
12587;SDS011;6359;51.450;7.346;2023-04-25T04:54:26;11.10;;;3.92;;
12587;SDS011;6359;51.450;7.346;2023-04-25T04:56:53;8.13;;;2.88;;
12587;SDS011;6359;51.450;7.346;2023-04-25T04:59:20;10.75;;;3.53;;
12587;SDS011;6359;51.450;7.346;2023-04-25T05:01:47;13.13;;;2.78;;
12587;SDS011;6359;51.450;7.346;2023-04-25T05:04:14;7.63;;;3.20;;
12587;SDS011;6359;51.450;7.346;2023-04-25T05:06:42;7.93;;;3.15;;
12587;SDS011;6359;51.450;7.346;2023-04-25T05:09:09;10.70;;;3.67;;
12587;SDS011;6359;51.450;7.346;2023-04-25T05:11:36;5.15;;;2.63;;
12587;SDS011;6359;51.450;7.346;2023-04-25T05:14:03;9.60;;;3.00;;
12587;SDS011;6359;51.450;7.346;2023-04-25T05:16:29;6.82;;;2.80;;
12587;SDS011;6359;51.450;7.346;2023-04-25T05:18:56;9.27;;;3.20;;
12587;SDS011;6359;51.450;7.346;2023-04-25T05:21:23;11.57;;;3.60;;
12587;SDS011;6359;51.450;7.346;2023-04-25T05:23:51;9.10;;;3.80;;
12587;SDS011;6359;51.450;7.346;2023-04-25T05:26:18;12.75;;;3.15;;
12587;SDS011;6359;51.450;7.346;2023-04-25T05:28:45;9.80;;;3.22;;
12587;SDS011;6359;51.450;7.346;2023-04-25T05:31:12;10.02;;;3.83;;
12587;SDS011;6359;51.450;7.346;2023-04-25T05:33:39;11.63;;;3.20;;
12587;SDS011;6359;51.450;7.346;2023-04-25T05:36:06;7.25;;;3.05;;
12587;SDS011;6359;51.450;7.346;2023-04-25T05:38:34;9.88;;;3.90;;
12587;SDS011;6359;51.450;7.346;2023-04-25T05:41:02;10.15;;;4.20;;
12587;SDS011;6359;51.450;7.346;2023-04-25T05:43:29;11.85;;;3.75;;
12587;SDS011;6359;51.450;7.346;2023-04-25T05:45:56;15.32;;;4.20;;
12587;SDS011;6359;51.450;7.346;2023-04-25T05:48:22;12.98;;;3.78;;
12587;SDS011;6359;51.450;7.346;2023-04-25T05:50:49;10.95;;;4.07;;
12587;SDS011;6359;51.450;7.346;2023-04-25T05:53:18;17.52;;;4.38;;
12587;SDS011;6359;51.450;7.346;2023-04-25T05:55:45;9.40;;;4.75;;
12587;SDS011;6359;51.450;7.346;2023-04-25T05:58:14;17.48;;;4.90;;
12587;SDS011;6359;51.450;7.346;2023-04-25T06:00:41;15.68;;;4.65;;
12587;SDS011;6359;51.450;7.346;2023-04-25T06:03:08;16.08;;;5.38;;
12587;SDS011;6359;51.450;7.346;2023-04-25T06:05:35;14.35;;;5.55;;
12587;SDS011;6359;51.450;7.346;2023-04-25T06:08:02;11.13;;;4.82;;
12587;SDS011;6359;51.450;7.346;2023-04-25T06:10:29;12.23;;;4.70;;
12587;SDS011;6359;51.450;7.346;2023-04-25T06:12:56;19.00;;;5.75;;
12587;SDS011;6359;51.450;7.346;2023-04-25T06:15:24;14.90;;;4.88;;
12587;SDS011;6359;51.450;7.346;2023-04-25T06:17:57;11.27;;;5.32;;
12587;SDS011;6359;51.450;7.346;2023-04-25T06:20:27;11.40;;;5.25;;
12587;SDS011;6359;51.450;7.346;2023-04-25T06:22:54;10.68;;;4.97;;
12587;SDS011;6359;51.450;7.346;2023-04-25T06:25:21;16.65;;;5.05;;
12587;SDS011;6359;51.450;7.346;2023-04-25T06:27:48;14.82;;;5.03;;
12587;SDS011;6359;51.450;7.346;2023-04-25T06:30:15;11.82;;;4.38;;
12587;SDS011;6359;51.450;7.346;2023-04-25T06:32:44;21.52;;;5.20;;
12587;SDS011;6359;51.450;7.346;2023-04-25T06:35:11;21.52;;;5.20;;
12587;SDS011;6359;51.450;7.346;2023-04-25T06:37:38;13.43;;;5.53;;
12587;SDS011;6359;51.450;7.346;2023-04-25T06:40:06;12.40;;;5.55;;
12587;SDS011;6359;51.450;7.346;2023-04-25T06:42:33;9.90;;;5.32;;
12587;SDS011;6359;51.450;7.346;2023-04-25T06:45:00;13.27;;;5.38;;
12587;SDS011;6359;51.450;7.346;2023-04-25T06:47:27;20.45;;;5.50;;
12587;SDS011;6359;51.450;7.346;2023-04-25T06:49:56;12.45;;;5.03;;
12587;SDS011;6359;51.450;7.346;2023-04-25T06:52:23;13.30;;;5.63;;
12587;SDS011;6359;51.450;7.346;2023-04-25T06:54:50;12.70;;;5.60;;
12587;SDS011;6359;51.450;7.346;2023-04-25T06:57:16;15.40;;;6.03;;
12587;SDS011;6359;51.450;7.346;2023-04-25T06:59:43;13.45;;;5.28;;
12587;SDS011;6359;51.450;7.346;2023-04-25T07:02:10;15.10;;;5.65;;
12587;SDS011;6359;51.450;7.346;2023-04-25T07:04:37;13.32;;;5.45;;
12587;SDS011;6359;51.450;7.346;2023-04-25T07:07:05;14.13;;;5.47;;
12587;SDS011;6359;51.450;7.346;2023-04-25T07:09:32;12.30;;;5.20;;
12587;SDS011;6359;51.450;7.346;2023-04-25T07:11:59;20.05;;;5.28;;
12587;SDS011;6359;51.450;7.346;2023-04-25T07:14:27;17.17;;;4.57;;
12587;SDS011;6359;51.450;7.346;2023-04-25T07:16:54;13.23;;;4.25;;
12587;SDS011;6359;51.450;7.346;2023-04-25T07:19:22;18.13;;;4.43;;
12587;SDS011;6359;51.450;7.346;2023-04-25T07:21:51;17.92;;;4.65;;
12587;SDS011;6359;51.450;7.346;2023-04-25T07:24:19;12.50;;;4.07;;
12587;SDS011;6359;51.450;7.346;2023-04-25T07:26:46;10.90;;;3.70;;
12587;SDS011;6359;51.450;7.346;2023-04-25T07:29:13;17.58;;;3.33;;
12587;SDS011;6359;51.450;7.346;2023-04-25T07:31:40;13.25;;;3.40;;
12587;SDS011;6359;51.450;7.346;2023-04-25T07:34:07;14.77;;;3.28;;
12587;SDS011;6359;51.450;7.346;2023-04-25T07:36:34;10.85;;;3.20;;
12587;SDS011;6359;51.450;7.346;2023-04-25T07:39:01;9.73;;;2.47;;
12587;SDS011;6359;51.450;7.346;2023-04-25T07:41:29;19.40;;;4.25;;
12587;SDS011;6359;51.450;7.346;2023-04-25T07:43:56;9.00;;;3.80;;
12587;SDS011;6359;51.450;7.346;2023-04-25T07:46:23;12.48;;;3.33;;
12587;SDS011;6359;51.450;7.346;2023-04-25T07:48:50;11.35;;;4.00;;
12587;SDS011;6359;51.450;7.346;2023-04-25T07:51:17;16.70;;;4.30;;
12587;SDS011;6359;51.450;7.346;2023-04-25T07:53:44;14.55;;;3.88;;
12587;SDS011;6359;51.450;7.346;2023-04-25T07:56:11;11.80;;;3.38;;
12587;SDS011;6359;51.450;7.346;2023-04-25T07:58:40;8.00;;;3.42;;
12587;SDS011;6359;51.450;7.346;2023-04-25T08:01:07;14.02;;;3.45;;
12587;SDS011;6359;51.450;7.346;2023-04-25T08:03:33;10.93;;;3.20;;
12587;SDS011;6359;51.450;7.346;2023-04-25T08:06:00;17.48;;;3.60;;
12587;SDS011;6359;51.450;7.346;2023-04-25T08:08:27;14.50;;;3.30;;
12587;SDS011;6359;51.450;7.346;2023-04-25T08:10:54;11.48;;;3.25;;
12587;SDS011;6359;51.450;7.346;2023-04-25T08:13:21;15.98;;;3.45;;
12587;SDS011;6359;51.450;7.346;2023-04-25T08:15:49;9.43;;;2.40;;
12587;SDS011;6359;51.450;7.346;2023-04-25T08:18:16;9.35;;;3.08;;
12587;SDS011;6359;51.450;7.346;2023-04-25T08:20:43;11.52;;;2.50;;
12587;SDS011;6359;51.450;7.346;2023-04-25T08:23:10;13.13;;;2.80;;
12587;SDS011;6359;51.450;7.346;2023-04-25T08:25:37;8.35;;;2.33;;
12587;SDS011;6359;51.450;7.346;2023-04-25T08:28:03;9.23;;;2.42;;
12587;SDS011;6359;51.450;7.346;2023-04-25T08:30:31;8.50;;;2.58;;
12587;SDS011;6359;51.450;7.346;2023-04-25T08:32:59;11.38;;;2.47;;
12587;SDS011;6359;51.450;7.346;2023-04-25T08:35:26;10.93;;;2.50;;
12587;SDS011;6359;51.450;7.346;2023-04-25T08:37:53;6.82;;;2.13;;
12587;SDS011;6359;51.450;7.346;2023-04-25T08:40:20;7.07;;;1.80;;
12587;SDS011;6359;51.450;7.346;2023-04-25T08:42:51;6.57;;;2.25;;
12587;SDS011;6359;51.450;7.346;2023-04-25T08:45:20;7.90;;;2.00;;
12587;SDS011;6359;51.450;7.346;2023-04-25T08:47:47;7.00;;;1.98;;
12587;SDS011;6359;51.450;7.346;2023-04-25T08:50:18;8.57;;;2.30;;
12587;SDS011;6359;51.450;7.346;2023-04-25T08:52:47;10.68;;;1.73;;
12587;SDS011;6359;51.450;7.346;2023-04-25T08:55:17;14.32;;;2.60;;
12587;SDS011;6359;51.450;7.346;2023-04-25T08:57:45;6.00;;;1.98;;
12587;SDS011;6359;51.450;7.346;2023-04-25T09:00:12;9.63;;;2.45;;
12587;SDS011;6359;51.450;7.346;2023-04-25T09:02:39;7.13;;;2.17;;
12587;SDS011;6359;51.450;7.346;2023-04-25T09:05:08;8.93;;;1.67;;
12587;SDS011;6359;51.450;7.346;2023-04-25T09:07:37;5.60;;;1.80;;
12587;SDS011;6359;51.450;7.346;2023-04-25T09:10:04;6.53;;;2.10;;
12587;SDS011;6359;51.450;7.346;2023-04-25T09:12:31;10.15;;;2.38;;
12587;SDS011;6359;51.450;7.346;2023-04-25T09:15:03;8.38;;;2.13;;
12587;SDS011;6359;51.450;7.346;2023-04-25T09:17:31;7.28;;;1.98;;
12587;SDS011;6359;51.450;7.346;2023-04-25T09:20:05;5.55;;;1.63;;
12587;SDS011;6359;51.450;7.346;2023-04-25T09:22:33;6.43;;;1.80;;
12587;SDS011;6359;51.450;7.346;2023-04-25T09:25:03;10.48;;;2.08;;
12587;SDS011;6359;51.450;7.346;2023-04-25T09:27:34;3.88;;;1.65;;
12587;SDS011;6359;51.450;7.346;2023-04-25T09:30:01;10.75;;;1.65;;
12587;SDS011;6359;51.450;7.346;2023-04-25T09:32:29;9.82;;;2.00;;
12587;SDS011;6359;51.450;7.346;2023-04-25T09:34:56;6.05;;;1.80;;
12587;SDS011;6359;51.450;7.346;2023-04-25T09:37:24;7.25;;;2.00;;
12587;SDS011;6359;51.450;7.346;2023-04-25T09:39:53;6.03;;;1.85;;
12587;SDS011;6359;51.450;7.346;2023-04-25T09:42:23;6.15;;;1.85;;
12587;SDS011;6359;51.450;7.346;2023-04-25T09:44:52;8.73;;;2.00;;
12587;SDS011;6359;51.450;7.346;2023-04-25T09:47:20;9.38;;;2.53;;
12587;SDS011;6359;51.450;7.346;2023-04-25T09:49:48;9.73;;;2.30;;
12587;SDS011;6359;51.450;7.346;2023-04-25T09:52:16;8.07;;;2.03;;
12587;SDS011;6359;51.450;7.346;2023-04-25T09:54:44;8.85;;;2.20;;
12587;SDS011;6359;51.450;7.346;2023-04-25T09:57:13;7.03;;;2.08;;
12587;SDS011;6359;51.450;7.346;2023-04-25T09:59:44;7.30;;;1.92;;
12587;SDS011;6359;51.450;7.346;2023-04-25T10:02:13;5.72;;;1.85;;
12587;SDS011;6359;51.450;7.346;2023-04-25T10:04:41;8.57;;;2.08;;
12587;SDS011;6359;51.450;7.346;2023-04-25T10:07:11;6.95;;;1.60;;
12587;SDS011;6359;51.450;7.346;2023-04-25T10:09:39;9.80;;;1.42;;
12587;SDS011;6359;51.450;7.346;2023-04-25T10:12:06;8.05;;;1.60;;
12587;SDS011;6359;51.450;7.346;2023-04-25T10:14:34;3.70;;;1.20;;
12587;SDS011;6359;51.450;7.346;2023-04-25T10:17:02;3.95;;;1.40;;
12587;SDS011;6359;51.450;7.346;2023-04-25T10:19:29;4.70;;;1.23;;
12587;SDS011;6359;51.450;7.346;2023-04-25T10:22:03;8.55;;;1.73;;
12587;SDS011;6359;51.450;7.346;2023-04-25T10:24:33;6.60;;;1.55;;
12587;SDS011;6359;51.450;7.346;2023-04-25T10:27:01;4.13;;;1.35;;
12587;SDS011;6359;51.450;7.346;2023-04-25T10:29:29;4.00;;;1.00;;
12587;SDS011;6359;51.450;7.346;2023-04-25T10:31:56;3.03;;;1.20;;
12587;SDS011;6359;51.450;7.346;2023-04-25T10:34:37;2.90;;;1.38;;
12587;SDS011;6359;51.450;7.346;2023-04-25T10:37:05;7.95;;;1.40;;
12587;SDS011;6359;51.450;7.346;2023-04-25T10:39:35;3.08;;;1.55;;
12587;SDS011;6359;51.450;7.346;2023-04-25T10:42:04;5.28;;;1.70;;
12587;SDS011;6359;51.450;7.346;2023-04-25T10:44:32;4.95;;;1.48;;
12587;SDS011;6359;51.450;7.346;2023-04-25T10:47:01;7.25;;;1.70;;
12587;SDS011;6359;51.450;7.346;2023-04-25T10:49:32;6.75;;;1.80;;
12587;SDS011;6359;51.450;7.346;2023-04-25T10:52:16;6.97;;;1.80;;
12587;SDS011;6359;51.450;7.346;2023-04-25T10:54:47;5.00;;;1.80;;
12587;SDS011;6359;51.450;7.346;2023-04-25T10:57:30;4.05;;;1.70;;
12587;SDS011;6359;51.450;7.346;2023-04-25T11:00:01;5.13;;;1.75;;
12587;SDS011;6359;51.450;7.346;2023-04-25T11:02:36;7.00;;;1.83;;
12587;SDS011;6359;51.450;7.346;2023-04-25T11:05:06;3.70;;;1.50;;
12587;SDS011;6359;51.450;7.346;2023-04-25T11:07:34;6.18;;;1.77;;
12587;SDS011;6359;51.450;7.346;2023-04-25T11:10:05;6.85;;;1.60;;
12587;SDS011;6359;51.450;7.346;2023-04-25T11:12:33;5.90;;;1.63;;
12587;SDS011;6359;51.450;7.346;2023-04-25T11:15:00;13.15;;;2.13;;
12587;SDS011;6359;51.450;7.346;2023-04-25T11:17:28;4.38;;;1.70;;
12587;SDS011;6359;51.450;7.346;2023-04-25T11:19:55;5.05;;;1.70;;
12587;SDS011;6359;51.450;7.346;2023-04-25T11:22:23;4.07;;;1.55;;
12587;SDS011;6359;51.450;7.346;2023-04-25T11:24:52;11.07;;;1.77;;
12587;SDS011;6359;51.450;7.346;2023-04-25T11:27:19;3.53;;;1.55;;
12587;SDS011;6359;51.450;7.346;2023-04-25T11:29:47;6.35;;;1.73;;
12587;SDS011;6359;51.450;7.346;2023-04-25T11:32:14;6.47;;;1.67;;
12587;SDS011;6359;51.450;7.346;2023-04-25T11:34:43;5.22;;;1.50;;
12587;SDS011;6359;51.450;7.346;2023-04-25T11:37:11;4.53;;;1.50;;
12587;SDS011;6359;51.450;7.346;2023-04-25T11:39:39;6.32;;;1.40;;
12587;SDS011;6359;51.450;7.346;2023-04-25T11:42:10;7.65;;;1.60;;
12587;SDS011;6359;51.450;7.346;2023-04-25T11:44:37;5.05;;;1.50;;
12587;SDS011;6359;51.450;7.346;2023-04-25T11:47:05;3.78;;;1.40;;
12587;SDS011;6359;51.450;7.346;2023-04-25T11:49:32;4.80;;;1.75;;
12587;SDS011;6359;51.450;7.346;2023-04-25T11:52:00;8.00;;;1.80;;
12587;SDS011;6359;51.450;7.346;2023-04-25T11:54:27;4.47;;;1.40;;
12587;SDS011;6359;51.450;7.346;2023-04-25T11:56:56;3.90;;;1.70;;
12587;SDS011;6359;51.450;7.346;2023-04-25T11:59:23;6.60;;;1.95;;
12587;SDS011;6359;51.450;7.346;2023-04-25T12:01:51;3.53;;;1.50;;
12587;SDS011;6359;51.450;7.346;2023-04-25T12:04:19;2.15;;;1.13;;
12587;SDS011;6359;51.450;7.346;2023-04-25T12:06:48;6.72;;;1.42;;
12587;SDS011;6359;51.450;7.346;2023-04-25T12:09:17;2.63;;;0.90;;
12587;SDS011;6359;51.450;7.346;2023-04-25T12:11:46;2.80;;;1.40;;
12587;SDS011;6359;51.450;7.346;2023-04-25T12:14:21;6.43;;;1.38;;
12587;SDS011;6359;51.450;7.346;2023-04-25T12:16:50;2.28;;;1.17;;
12587;SDS011;6359;51.450;7.346;2023-04-25T12:19:18;4.20;;;1.00;;
12587;SDS011;6359;51.450;7.346;2023-04-25T12:21:46;2.28;;;1.08;;
12587;SDS011;6359;51.450;7.346;2023-04-25T12:24:14;4.35;;;1.40;;
12587;SDS011;6359;51.450;7.346;2023-04-25T12:26:49;4.90;;;1.30;;
12587;SDS011;6359;51.450;7.346;2023-04-25T12:29:18;1.88;;;0.88;;
12587;SDS011;6359;51.450;7.346;2023-04-25T12:31:47;3.05;;;1.20;;
12587;SDS011;6359;51.450;7.346;2023-04-25T12:34:14;3.60;;;1.40;;
12587;SDS011;6359;51.450;7.346;2023-04-25T12:36:41;4.63;;;1.55;;
12587;SDS011;6359;51.450;7.346;2023-04-25T12:39:08;2.08;;;1.10;;
12587;SDS011;6359;51.450;7.346;2023-04-25T12:41:40;5.32;;;1.73;;
12587;SDS011;6359;51.450;7.346;2023-04-25T12:44:07;3.03;;;1.20;;
12587;SDS011;6359;51.450;7.346;2023-04-25T12:46:35;6.20;;;1.50;;
12587;SDS011;6359;51.450;7.346;2023-04-25T12:49:03;1.40;;;0.85;;
12587;SDS011;6359;51.450;7.346;2023-04-25T12:51:31;4.68;;;1.48;;
12587;SDS011;6359;51.450;7.346;2023-04-25T12:53:58;3.15;;;1.20;;
12587;SDS011;6359;51.450;7.346;2023-04-25T12:56:25;3.55;;;1.17;;
12587;SDS011;6359;51.450;7.346;2023-04-25T12:58:52;1.75;;;1.10;;
12587;SDS011;6359;51.450;7.346;2023-04-25T13:01:19;2.92;;;1.00;;
12587;SDS011;6359;51.450;7.346;2023-04-25T13:03:47;3.40;;;1.30;;
12587;SDS011;6359;51.450;7.346;2023-04-25T13:06:14;2.83;;;1.23;;
12587;SDS011;6359;51.450;7.346;2023-04-25T13:08:41;2.90;;;1.35;;
12587;SDS011;6359;51.450;7.346;2023-04-25T13:11:09;4.25;;;1.55;;
12587;SDS011;6359;51.450;7.346;2023-04-25T13:13:36;3.20;;;1.33;;
12587;SDS011;6359;51.450;7.346;2023-04-25T13:16:04;4.80;;;1.30;;
12587;SDS011;6359;51.450;7.346;2023-04-25T13:18:32;3.38;;;1.15;;
12587;SDS011;6359;51.450;7.346;2023-04-25T13:21:00;1.70;;;1.17;;
12587;SDS011;6359;51.450;7.346;2023-04-25T13:23:28;2.00;;;1.10;;
12587;SDS011;6359;51.450;7.346;2023-04-25T13:25:56;3.33;;;1.20;;
12587;SDS011;6359;51.450;7.346;2023-04-25T13:28:23;4.50;;;1.23;;
12587;SDS011;6359;51.450;7.346;2023-04-25T13:30:50;5.13;;;1.10;;
12587;SDS011;6359;51.450;7.346;2023-04-25T13:33:17;3.78;;;1.35;;
12587;SDS011;6359;51.450;7.346;2023-04-25T13:35:45;2.45;;;1.25;;
12587;SDS011;6359;51.450;7.346;2023-04-25T13:38:20;3.13;;;1.20;;
12587;SDS011;6359;51.450;7.346;2023-04-25T13:40:47;3.00;;;1.40;;
12587;SDS011;6359;51.450;7.346;2023-04-25T13:43:15;5.20;;;1.42;;
12587;SDS011;6359;51.450;7.346;2023-04-25T13:45:42;5.28;;;1.50;;
12587;SDS011;6359;51.450;7.346;2023-04-25T13:48:09;1.35;;;1.08;;
12587;SDS011;6359;51.450;7.346;2023-04-25T13:50:35;3.80;;;1.23;;
12587;SDS011;6359;51.450;7.346;2023-04-25T13:53:02;3.72;;;1.58;;
12587;SDS011;6359;51.450;7.346;2023-04-25T13:55:31;6.30;;;1.40;;
12587;SDS011;6359;51.450;7.346;2023-04-25T13:57:58;5.65;;;1.48;;
12587;SDS011;6359;51.450;7.346;2023-04-25T14:00:32;3.72;;;1.40;;
12587;SDS011;6359;51.450;7.346;2023-04-25T14:02:59;2.08;;;1.25;;
12587;SDS011;6359;51.450;7.346;2023-04-25T14:05:29;1.85;;;1.02;;
12587;SDS011;6359;51.450;7.346;2023-04-25T14:07:57;3.58;;;1.48;;
12587;SDS011;6359;51.450;7.346;2023-04-25T14:10:24;2.95;;;1.20;;
12587;SDS011;6359;51.450;7.346;2023-04-25T14:12:53;11.15;;;2.08;;
12587;SDS011;6359;51.450;7.346;2023-04-25T14:15:19;3.42;;;1.40;;
12587;SDS011;6359;51.450;7.346;2023-04-25T14:17:46;3.13;;;1.23;;
12587;SDS011;6359;51.450;7.346;2023-04-25T14:20:14;6.28;;;1.30;;
12587;SDS011;6359;51.450;7.346;2023-04-25T14:22:41;2.33;;;1.00;;
12587;SDS011;6359;51.450;7.346;2023-04-25T14:25:08;3.47;;;1.30;;
12587;SDS011;6359;51.450;7.346;2023-04-25T14:27:35;3.20;;;1.27;;
12587;SDS011;6359;51.450;7.346;2023-04-25T14:30:04;5.25;;;1.17;;
12587;SDS011;6359;51.450;7.346;2023-04-25T14:32:34;2.30;;;1.20;;
12587;SDS011;6359;51.450;7.346;2023-04-25T14:35:01;1.92;;;1.20;;
12587;SDS011;6359;51.450;7.346;2023-04-25T14:37:28;3.75;;;1.00;;
12587;SDS011;6359;51.450;7.346;2023-04-25T14:39:54;6.45;;;1.30;;
12587;SDS011;6359;51.450;7.346;2023-04-25T14:42:21;3.10;;;1.17;;
12587;SDS011;6359;51.450;7.346;2023-04-25T14:44:48;2.53;;;1.00;;
12587;SDS011;6359;51.450;7.346;2023-04-25T14:47:17;4.60;;;1.50;;
12587;SDS011;6359;51.450;7.346;2023-04-25T14:49:44;3.95;;;1.30;;
12587;SDS011;6359;51.450;7.346;2023-04-25T14:52:16;3.50;;;1.10;;
12587;SDS011;6359;51.450;7.346;2023-04-25T14:54:43;5.05;;;1.45;;
12587;SDS011;6359;51.450;7.346;2023-04-25T14:57:09;3.83;;;1.10;;
12587;SDS011;6359;51.450;7.346;2023-04-25T14:59:37;3.17;;;1.33;;